sensor_id;sensor_type;location;lat;lon;timestamp;temperature;humidity
41678;DHT22;27364;49.026;8.712;2022-07-29T00:00:39;21.50;94.50
41678;DHT22;27364;49.026;8.712;2022-07-29T00:03:04;21.50;94.60
41678;DHT22;27364;49.026;8.712;2022-07-29T00:05:30;21.40;95.10
41678;DHT22;27364;49.026;8.712;2022-07-29T00:07:55;21.30;95.50
41678;DHT22;27364;49.026;8.712;2022-07-29T00:10:21;21.30;95.80
41678;DHT22;27364;49.026;8.712;2022-07-29T00:12:47;21.20;96.50
41678;DHT22;27364;49.026;8.712;2022-07-29T00:15:13;21.20;96.90
41678;DHT22;27364;49.026;8.712;2022-07-29T00:17:38;21.10;97.60
41678;DHT22;27364;49.026;8.712;2022-07-29T00:20:04;21.10;98.20
41678;DHT22;27364;49.026;8.712;2022-07-29T00:22:30;21.10;98.70
41678;DHT22;27364;49.026;8.712;2022-07-29T00:24:55;21.10;98.90
41678;DHT22;27364;49.026;8.712;2022-07-29T00:27:21;21.10;99.30
41678;DHT22;27364;49.026;8.712;2022-07-29T00:29:47;21.10;99.70
41678;DHT22;27364;49.026;8.712;2022-07-29T00:32:13;21.10;99.90
41678;DHT22;27364;49.026;8.712;2022-07-29T00:34:39;21.10;99.90
41678;DHT22;27364;49.026;8.712;2022-07-29T00:37:23;21.10;99.90
41678;DHT22;27364;49.026;8.712;2022-07-29T00:39:49;21.00;99.90
41678;DHT22;27364;49.026;8.712;2022-07-29T00:42:15;21.00;99.90
41678;DHT22;27364;49.026;8.712;2022-07-29T00:44:42;21.00;99.90
41678;DHT22;27364;49.026;8.712;2022-07-29T00:47:09;21.00;99.90
41678;DHT22;27364;49.026;8.712;2022-07-29T00:49:35;21.00;99.90
41678;DHT22;27364;49.026;8.712;2022-07-29T00:52:05;21.00;99.90
41678;DHT22;27364;49.026;8.712;2022-07-29T00:54:31;21.00;99.90
41678;DHT22;27364;49.026;8.712;2022-07-29T00:56:58;21.00;99.90
41678;DHT22;27364;49.026;8.712;2022-07-29T00:59:24;21.00;99.90
41678;DHT22;27364;49.026;8.712;2022-07-29T01:01:50;21.00;99.90
41678;DHT22;27364;49.026;8.712;2022-07-29T01:04:16;21.00;99.90
41678;DHT22;27364;49.026;8.712;2022-07-29T01:06:42;21.00;99.90
41678;DHT22;27364;49.026;8.712;2022-07-29T01:09:08;21.00;99.90
41678;DHT22;27364;49.026;8.712;2022-07-29T01:11:34;21.00;99.90
41678;DHT22;27364;49.026;8.712;2022-07-29T01:14:01;21.00;99.90
41678;DHT22;27364;49.026;8.712;2022-07-29T01:16:45;20.90;99.90
41678;DHT22;27364;49.026;8.712;2022-07-29T01:22:27;20.50;99.90
41678;DHT22;27364;49.026;8.712;2022-07-29T01:25:31;20.30;99.90
41678;DHT22;27364;49.026;8.712;2022-07-29T01:31:03;20.20;99.90
41678;DHT22;27364;49.026;8.712;2022-07-29T01:33:30;20.20;99.90
41678;DHT22;27364;49.026;8.712;2022-07-29T01:36:18;20.20;99.90
41678;DHT22;27364;49.026;8.712;2022-07-29T01:41:49;20.10;99.90
41678;DHT22;27364;49.026;8.712;2022-07-29T01:44:20;20.10;99.90
41678;DHT22;27364;49.026;8.712;2022-07-29T01:46:54;20.10;99.90
41678;DHT22;27364;49.026;8.712;2022-07-29T01:49:29;20.10;99.90
41678;DHT22;27364;49.026;8.712;2022-07-29T01:52:11;20.10;99.90
41678;DHT22;27364;49.026;8.712;2022-07-29T01:54:52;20.00;99.90
41678;DHT22;27364;49.026;8.712;2022-07-29T01:57:21;20.00;99.90
41678;DHT22;27364;49.026;8.712;2022-07-29T01:59:51;20.10;99.90
41678;DHT22;27364;49.026;8.712;2022-07-29T02:02:18;20.00;99.90
41678;DHT22;27364;49.026;8.712;2022-07-29T02:04:45;20.00;99.90
41678;DHT22;27364;49.026;8.712;2022-07-29T02:07:17;19.80;99.90
41678;DHT22;27364;49.026;8.712;2022-07-29T02:09:45;19.80;99.90
41678;DHT22;27364;49.026;8.712;2022-07-29T02:12:11;19.70;99.90
41678;DHT22;27364;49.026;8.712;2022-07-29T02:14:45;19.70;99.90
41678;DHT22;27364;49.026;8.712;2022-07-29T02:17:13;19.70;99.90
41678;DHT22;27364;49.026;8.712;2022-07-29T02:19:43;19.70;99.90
41678;DHT22;27364;49.026;8.712;2022-07-29T02:22:10;19.70;99.90
41678;DHT22;27364;49.026;8.712;2022-07-29T02:24:38;19.70;99.90
41678;DHT22;27364;49.026;8.712;2022-07-29T02:27:07;19.70;99.90
41678;DHT22;27364;49.026;8.712;2022-07-29T02:29:33;19.80;99.90
41678;DHT22;27364;49.026;8.712;2022-07-29T02:32:00;19.70;99.90
41678;DHT22;27364;49.026;8.712;2022-07-29T02:34:28;19.80;99.90
41678;DHT22;27364;49.026;8.712;2022-07-29T02:36:55;19.70;99.90
41678;DHT22;27364;49.026;8.712;2022-07-29T02:39:22;19.70;99.90
41678;DHT22;27364;49.026;8.712;2022-07-29T02:41:57;19.70;99.90
41678;DHT22;27364;49.026;8.712;2022-07-29T02:44:25;19.70;99.90
41678;DHT22;27364;49.026;8.712;2022-07-29T02:46:58;19.70;99.90
41678;DHT22;27364;49.026;8.712;2022-07-29T02:49:47;19.80;99.90
41678;DHT22;27364;49.026;8.712;2022-07-29T02:55:00;19.80;99.90
41678;DHT22;27364;49.026;8.712;2022-07-29T02:57:57;19.80;99.90
41678;DHT22;27364;49.026;8.712;2022-07-29T03:00:28;19.80;99.90
41678;DHT22;27364;49.026;8.712;2022-07-29T03:02:56;19.80;99.90
41678;DHT22;27364;49.026;8.712;2022-07-29T03:05:22;19.80;99.90
41678;DHT22;27364;49.026;8.712;2022-07-29T03:07:58;19.80;99.90
41678;DHT22;27364;49.026;8.712;2022-07-29T03:10:26;19.90;99.90
41678;DHT22;27364;49.026;8.712;2022-07-29T03:12:52;19.80;99.90
41678;DHT22;27364;49.026;8.712;2022-07-29T03:15:18;19.90;99.90
41678;DHT22;27364;49.026;8.712;2022-07-29T03:17:45;19.80;99.90
41678;DHT22;27364;49.026;8.712;2022-07-29T03:20:11;19.70;99.90
41678;DHT22;27364;49.026;8.712;2022-07-29T03:22:42;19.60;99.90
41678;DHT22;27364;49.026;8.712;2022-07-29T03:25:17;19.50;99.90
41678;DHT22;27364;49.026;8.712;2022-07-29T03:27:43;19.40;99.90
41678;DHT22;27364;49.026;8.712;2022-07-29T03:30:10;19.40;99.90
41678;DHT22;27364;49.026;8.712;2022-07-29T03:32:36;19.30;99.90
41678;DHT22;27364;49.026;8.712;2022-07-29T03:35:02;19.30;99.90
41678;DHT22;27364;49.026;8.712;2022-07-29T03:37:28;19.30;99.90
41678;DHT22;27364;49.026;8.712;2022-07-29T03:39:57;19.30;99.90
41678;DHT22;27364;49.026;8.712;2022-07-29T03:42:31;19.30;99.90
41678;DHT22;27364;49.026;8.712;2022-07-29T03:45:03;19.30;99.90
41678;DHT22;27364;49.026;8.712;2022-07-29T03:47:31;19.30;99.90
41678;DHT22;27364;49.026;8.712;2022-07-29T03:50:02;19.20;99.90
41678;DHT22;27364;49.026;8.712;2022-07-29T03:52:30;19.20;99.90
41678;DHT22;27364;49.026;8.712;2022-07-29T03:54:56;19.20;99.90
41678;DHT22;27364;49.026;8.712;2022-07-29T03:57:24;19.10;99.90
41678;DHT22;27364;49.026;8.712;2022-07-29T03:59:52;19.10;99.90
41678;DHT22;27364;49.026;8.712;2022-07-29T04:02:18;19.20;99.90
41678;DHT22;27364;49.026;8.712;2022-07-29T04:04:44;19.20;99.90
41678;DHT22;27364;49.026;8.712;2022-07-29T04:07:14;19.10;99.90
41678;DHT22;27364;49.026;8.712;2022-07-29T04:09:40;19.20;99.90
41678;DHT22;27364;49.026;8.712;2022-07-29T04:12:07;19.10;99.90
41678;DHT22;27364;49.026;8.712;2022-07-29T04:14:33;19.20;99.90
41678;DHT22;27364;49.026;8.712;2022-07-29T04:17:00;19.20;99.90
41678;DHT22;27364;49.026;8.712;2022-07-29T04:19:26;19.30;99.90
41678;DHT22;27364;49.026;8.712;2022-07-29T04:21:51;19.40;99.90
41678;DHT22;27364;49.026;8.712;2022-07-29T04:24:17;19.40;99.90
41678;DHT22;27364;49.026;8.712;2022-07-29T04:26:43;19.40;99.90
41678;DHT22;27364;49.026;8.712;2022-07-29T04:29:08;19.40;99.90
41678;DHT22;27364;49.026;8.712;2022-07-29T04:31:34;19.40;99.90
41678;DHT22;27364;49.026;8.712;2022-07-29T04:34:00;19.40;99.90
41678;DHT22;27364;49.026;8.712;2022-07-29T04:36:25;19.40;99.90
41678;DHT22;27364;49.026;8.712;2022-07-29T04:38:51;19.40;99.90
41678;DHT22;27364;49.026;8.712;2022-07-29T04:41:16;19.40;99.90
41678;DHT22;27364;49.026;8.712;2022-07-29T04:43:42;19.40;99.90
41678;DHT22;27364;49.026;8.712;2022-07-29T04:46:07;19.50;99.90
41678;DHT22;27364;49.026;8.712;2022-07-29T04:48:33;19.50;99.90
41678;DHT22;27364;49.026;8.712;2022-07-29T04:50:59;19.50;99.90
41678;DHT22;27364;49.026;8.712;2022-07-29T04:53:25;19.60;99.90
41678;DHT22;27364;49.026;8.712;2022-07-29T04:55:51;19.60;99.90
41678;DHT22;27364;49.026;8.712;2022-07-29T04:58:16;19.70;99.90
41678;DHT22;27364;49.026;8.712;2022-07-29T05:00:42;19.60;99.90
41678;DHT22;27364;49.026;8.712;2022-07-29T05:03:08;19.60;99.90
41678;DHT22;27364;49.026;8.712;2022-07-29T05:05:33;19.60;99.90
41678;DHT22;27364;49.026;8.712;2022-07-29T05:07:59;19.70;99.90
41678;DHT22;27364;49.026;8.712;2022-07-29T05:10:25;19.60;99.90
41678;DHT22;27364;49.026;8.712;2022-07-29T05:12:50;19.60;99.90
41678;DHT22;27364;49.026;8.712;2022-07-29T05:15:16;19.60;99.90
41678;DHT22;27364;49.026;8.712;2022-07-29T05:17:43;19.70;99.90
41678;DHT22;27364;49.026;8.712;2022-07-29T05:20:09;19.70;99.90
41678;DHT22;27364;49.026;8.712;2022-07-29T05:22:34;19.90;99.90
41678;DHT22;27364;49.026;8.712;2022-07-29T05:25:00;19.80;99.90
41678;DHT22;27364;49.026;8.712;2022-07-29T05:27:26;19.90;99.90
41678;DHT22;27364;49.026;8.712;2022-07-29T05:29:51;19.90;99.90
41678;DHT22;27364;49.026;8.712;2022-07-29T05:32:17;19.90;99.90
41678;DHT22;27364;49.026;8.712;2022-07-29T05:34:42;20.00;99.90
41678;DHT22;27364;49.026;8.712;2022-07-29T05:37:08;20.00;99.90
41678;DHT22;27364;49.026;8.712;2022-07-29T05:39:33;20.10;99.90
41678;DHT22;27364;49.026;8.712;2022-07-29T05:41:59;20.00;99.90
41678;DHT22;27364;49.026;8.712;2022-07-29T05:44:24;20.00;99.90
41678;DHT22;27364;49.026;8.712;2022-07-29T05:46:50;20.00;99.90
41678;DHT22;27364;49.026;8.712;2022-07-29T05:49:15;19.90;99.90
41678;DHT22;27364;49.026;8.712;2022-07-29T05:51:41;20.00;99.90
41678;DHT22;27364;49.026;8.712;2022-07-29T05:54:07;20.00;99.90
41678;DHT22;27364;49.026;8.712;2022-07-29T05:56:32;20.20;99.90
41678;DHT22;27364;49.026;8.712;2022-07-29T05:58:58;20.20;99.90
41678;DHT22;27364;49.026;8.712;2022-07-29T06:01:24;20.20;99.90
41678;DHT22;27364;49.026;8.712;2022-07-29T06:03:49;20.30;99.90
41678;DHT22;27364;49.026;8.712;2022-07-29T06:06:15;20.30;99.90
41678;DHT22;27364;49.026;8.712;2022-07-29T06:08:41;20.40;99.90
41678;DHT22;27364;49.026;8.712;2022-07-29T06:11:06;20.40;99.90
41678;DHT22;27364;49.026;8.712;2022-07-29T06:13:34;20.50;99.90
41678;DHT22;27364;49.026;8.712;2022-07-29T06:15:59;20.50;99.90
41678;DHT22;27364;49.026;8.712;2022-07-29T06:18:25;20.60;99.90
41678;DHT22;27364;49.026;8.712;2022-07-29T06:20:51;20.70;99.90
41678;DHT22;27364;49.026;8.712;2022-07-29T06:23:17;20.70;99.90
41678;DHT22;27364;49.026;8.712;2022-07-29T06:25:43;20.80;99.90
41678;DHT22;27364;49.026;8.712;2022-07-29T06:28:09;20.80;99.90
41678;DHT22;27364;49.026;8.712;2022-07-29T06:30:35;20.90;99.90
41678;DHT22;27364;49.026;8.712;2022-07-29T06:33:00;20.90;99.90
41678;DHT22;27364;49.026;8.712;2022-07-29T06:35:27;21.10;99.90
41678;DHT22;27364;49.026;8.712;2022-07-29T06:37:52;21.10;99.90
41678;DHT22;27364;49.026;8.712;2022-07-29T06:40:18;21.10;99.90
41678;DHT22;27364;49.026;8.712;2022-07-29T06:43:02;21.10;99.90
41678;DHT22;27364;49.026;8.712;2022-07-29T06:45:28;21.30;99.90
41678;DHT22;27364;49.026;8.712;2022-07-29T06:47:53;21.30;99.90
41678;DHT22;27364;49.026;8.712;2022-07-29T06:50:19;21.30;99.90
41678;DHT22;27364;49.026;8.712;2022-07-29T06:52:45;21.30;99.90
41678;DHT22;27364;49.026;8.712;2022-07-29T06:55:10;21.40;99.90
41678;DHT22;27364;49.026;8.712;2022-07-29T06:57:36;21.30;99.90
41678;DHT22;27364;49.026;8.712;2022-07-29T07:00:03;21.30;99.90
41678;DHT22;27364;49.026;8.712;2022-07-29T07:02:30;21.30;99.90
41678;DHT22;27364;49.026;8.712;2022-07-29T07:04:55;21.40;99.90
41678;DHT22;27364;49.026;8.712;2022-07-29T07:07:21;21.50;99.90
41678;DHT22;27364;49.026;8.712;2022-07-29T07:09:46;21.60;99.90
41678;DHT22;27364;49.026;8.712;2022-07-29T07:12:12;21.70;99.90
41678;DHT22;27364;49.026;8.712;2022-07-29T07:14:38;21.70;99.90
41678;DHT22;27364;49.026;8.712;2022-07-29T07:17:05;21.70;99.90
41678;DHT22;27364;49.026;8.712;2022-07-29T07:19:32;21.80;99.90
41678;DHT22;27364;49.026;8.712;2022-07-29T07:21:57;21.90;99.90
41678;DHT22;27364;49.026;8.712;2022-07-29T07:24:23;21.90;99.90
41678;DHT22;27364;49.026;8.712;2022-07-29T07:26:48;21.90;99.90
41678;DHT22;27364;49.026;8.712;2022-07-29T07:29:14;22.00;99.90
41678;DHT22;27364;49.026;8.712;2022-07-29T07:31:40;22.10;99.90
41678;DHT22;27364;49.026;8.712;2022-07-29T07:34:05;22.10;99.90
41678;DHT22;27364;49.026;8.712;2022-07-29T07:36:31;22.20;99.90
41678;DHT22;27364;49.026;8.712;2022-07-29T07:38:56;22.20;99.90
41678;DHT22;27364;49.026;8.712;2022-07-29T07:41:22;22.30;99.90
41678;DHT22;27364;49.026;8.712;2022-07-29T07:43:48;22.30;99.90
41678;DHT22;27364;49.026;8.712;2022-07-29T07:46:14;22.40;99.90
41678;DHT22;27364;49.026;8.712;2022-07-29T07:48:40;22.50;99.90
41678;DHT22;27364;49.026;8.712;2022-07-29T07:51:06;22.60;99.90
41678;DHT22;27364;49.026;8.712;2022-07-29T07:53:32;22.60;99.90
41678;DHT22;27364;49.026;8.712;2022-07-29T07:55:58;22.60;99.90
41678;DHT22;27364;49.026;8.712;2022-07-29T07:58:24;22.60;99.90
41678;DHT22;27364;49.026;8.712;2022-07-29T08:00:49;22.60;99.80
41678;DHT22;27364;49.026;8.712;2022-07-29T08:03:15;22.60;99.90
41678;DHT22;27364;49.026;8.712;2022-07-29T08:05:40;22.70;99.90
41678;DHT22;27364;49.026;8.712;2022-07-29T08:08:06;22.70;99.70
41678;DHT22;27364;49.026;8.712;2022-07-29T08:10:32;22.80;99.90
41678;DHT22;27364;49.026;8.712;2022-07-29T08:13:16;22.80;99.20
41678;DHT22;27364;49.026;8.712;2022-07-29T08:15:42;23.00;98.30
41678;DHT22;27364;49.026;8.712;2022-07-29T08:18:08;23.10;98.80
41678;DHT22;27364;49.026;8.712;2022-07-29T08:20:34;23.20;98.50
41678;DHT22;27364;49.026;8.712;2022-07-29T08:23:04;23.30;97.40
41678;DHT22;27364;49.026;8.712;2022-07-29T08:25:31;23.30;96.00
41678;DHT22;27364;49.026;8.712;2022-07-29T08:28:04;23.20;96.30
41678;DHT22;27364;49.026;8.712;2022-07-29T08:30:29;23.20;96.50
41678;DHT22;27364;49.026;8.712;2022-07-29T08:32:55;23.20;96.20
41678;DHT22;27364;49.026;8.712;2022-07-29T08:35:22;23.20;97.40
41678;DHT22;27364;49.026;8.712;2022-07-29T08:37:48;23.20;96.80
41678;DHT22;27364;49.026;8.712;2022-07-29T08:40:14;23.30;97.10
41678;DHT22;27364;49.026;8.712;2022-07-29T08:42:40;23.50;96.40
41678;DHT22;27364;49.026;8.712;2022-07-29T08:45:06;23.40;96.30
41678;DHT22;27364;49.026;8.712;2022-07-29T08:47:33;23.70;95.90
41678;DHT22;27364;49.026;8.712;2022-07-29T08:49:58;23.80;95.50
41678;DHT22;27364;49.026;8.712;2022-07-29T08:52:25;23.70;95.10
41678;DHT22;27364;49.026;8.712;2022-07-29T08:54:53;24.00;95.10
41678;DHT22;27364;49.026;8.712;2022-07-29T08:57:19;24.00;95.00
41678;DHT22;27364;49.026;8.712;2022-07-29T08:59:46;24.10;94.90
41678;DHT22;27364;49.026;8.712;2022-07-29T09:02:18;24.20;93.00
41678;DHT22;27364;49.026;8.712;2022-07-29T09:04:44;24.30;94.70
41678;DHT22;27364;49.026;8.712;2022-07-29T09:07:10;24.40;93.00
41678;DHT22;27364;49.026;8.712;2022-07-29T09:09:39;24.30;94.00
41678;DHT22;27364;49.026;8.712;2022-07-29T09:12:05;24.30;94.70
41678;DHT22;27364;49.026;8.712;2022-07-29T09:14:33;24.50;93.20
41678;DHT22;27364;49.026;8.712;2022-07-29T09:16:59;24.60;93.10
41678;DHT22;27364;49.026;8.712;2022-07-29T09:19:27;24.50;91.90
41678;DHT22;27364;49.026;8.712;2022-07-29T09:21:53;24.50;92.30
41678;DHT22;27364;49.026;8.712;2022-07-29T09:27:20;24.40;91.20
41678;DHT22;27364;49.026;8.712;2022-07-29T09:29:47;24.70;88.60
41678;DHT22;27364;49.026;8.712;2022-07-29T09:32:12;24.80;87.30
41678;DHT22;27364;49.026;8.712;2022-07-29T09:34:38;24.80;86.90
41678;DHT22;27364;49.026;8.712;2022-07-29T09:37:04;24.90;86.40
41678;DHT22;27364;49.026;8.712;2022-07-29T09:39:34;25.10;84.60
41678;DHT22;27364;49.026;8.712;2022-07-29T09:42:06;25.20;83.60
41678;DHT22;27364;49.026;8.712;2022-07-29T09:44:48;25.30;85.50
41678;DHT22;27364;49.026;8.712;2022-07-29T09:47:16;25.30;84.90
41678;DHT22;27364;49.026;8.712;2022-07-29T09:49:53;25.20;82.90
41678;DHT22;27364;49.026;8.712;2022-07-29T09:52:19;25.30;79.60
41678;DHT22;27364;49.026;8.712;2022-07-29T09:54:45;25.40;82.90
41678;DHT22;27364;49.026;8.712;2022-07-29T09:57:28;25.40;80.60
41678;DHT22;27364;49.026;8.712;2022-07-29T10:00:03;25.40;79.90
41678;DHT22;27364;49.026;8.712;2022-07-29T10:02:33;25.70;77.90
41678;DHT22;27364;49.026;8.712;2022-07-29T10:05:00;25.70;78.80
41678;DHT22;27364;49.026;8.712;2022-07-29T10:07:28;25.60;78.50
41678;DHT22;27364;49.026;8.712;2022-07-29T10:10:07;25.60;79.40
41678;DHT22;27364;49.026;8.712;2022-07-29T10:12:33;25.40;78.20
41678;DHT22;27364;49.026;8.712;2022-07-29T10:15:01;25.50;76.80
41678;DHT22;27364;49.026;8.712;2022-07-29T10:17:28;25.50;77.50
41678;DHT22;27364;49.026;8.712;2022-07-29T10:19:54;25.60;74.80
41678;DHT22;27364;49.026;8.712;2022-07-29T10:22:20;25.70;73.70
41678;DHT22;27364;49.026;8.712;2022-07-29T10:24:46;25.70;76.70
41678;DHT22;27364;49.026;8.712;2022-07-29T10:27:11;25.90;76.00
41678;DHT22;27364;49.026;8.712;2022-07-29T10:29:37;25.90;75.10
41678;DHT22;27364;49.026;8.712;2022-07-29T10:43:24;26.10;75.10
41678;DHT22;27364;49.026;8.712;2022-07-29T10:46:00;26.30;73.60
41678;DHT22;27364;49.026;8.712;2022-07-29T10:48:26;26.40;72.80
41678;DHT22;27364;49.026;8.712;2022-07-29T10:51:00;26.60;72.20
41678;DHT22;27364;49.026;8.712;2022-07-29T10:53:47;26.50;74.00
41678;DHT22;27364;49.026;8.712;2022-07-29T10:56:30;26.60;72.80
41678;DHT22;27364;49.026;8.712;2022-07-29T11:01:48;27.10;70.10
41678;DHT22;27364;49.026;8.712;2022-07-29T11:04:15;27.20;71.40
41678;DHT22;27364;49.026;8.712;2022-07-29T11:09:28;27.30;69.80
41678;DHT22;27364;49.026;8.712;2022-07-29T11:11:56;27.30;67.20
41678;DHT22;27364;49.026;8.712;2022-07-29T11:14:57;27.30;67.10
41678;DHT22;27364;49.026;8.712;2022-07-29T11:17:24;27.50;68.30
41678;DHT22;27364;49.026;8.712;2022-07-29T11:19:50;27.50;67.60
41678;DHT22;27364;49.026;8.712;2022-07-29T11:22:33;27.50;67.30
41678;DHT22;27364;49.026;8.712;2022-07-29T11:25:15;27.80;69.20
41678;DHT22;27364;49.026;8.712;2022-07-29T11:27:41;27.90;65.40
41678;DHT22;27364;49.026;8.712;2022-07-29T11:30:07;27.90;66.50
41678;DHT22;27364;49.026;8.712;2022-07-29T11:32:43;27.90;65.70
41678;DHT22;27364;49.026;8.712;2022-07-29T11:35:22;28.00;65.40
41678;DHT22;27364;49.026;8.712;2022-07-29T11:43:59;28.30;63.00
41678;DHT22;27364;49.026;8.712;2022-07-29T11:46:45;28.20;64.90
41678;DHT22;27364;49.026;8.712;2022-07-29T11:49:21;28.20;62.40
41678;DHT22;27364;49.026;8.712;2022-07-29T11:51:55;28.30;63.20
41678;DHT22;27364;49.026;8.712;2022-07-29T11:54:32;28.50;61.60
41678;DHT22;27364;49.026;8.712;2022-07-29T11:56:58;28.70;63.50
41678;DHT22;27364;49.026;8.712;2022-07-29T11:59:25;28.90;61.40
41678;DHT22;27364;49.026;8.712;2022-07-29T12:01:58;28.80;61.00
41678;DHT22;27364;49.026;8.712;2022-07-29T12:04:25;28.70;60.90
41678;DHT22;27364;49.026;8.712;2022-07-29T12:06:52;28.80;62.20
41678;DHT22;27364;49.026;8.712;2022-07-29T12:09:19;28.80;60.50
41678;DHT22;27364;49.026;8.712;2022-07-29T12:11:46;28.60;60.40
41678;DHT22;27364;49.026;8.712;2022-07-29T12:14:44;28.60;60.80
41678;DHT22;27364;49.026;8.712;2022-07-29T12:19:53;28.30;60.60
41678;DHT22;27364;49.026;8.712;2022-07-29T12:22:33;28.30;60.80
41678;DHT22;27364;49.026;8.712;2022-07-29T12:25:07;28.00;60.50
41678;DHT22;27364;49.026;8.712;2022-07-29T12:27:34;27.90;60.30
41678;DHT22;27364;49.026;8.712;2022-07-29T12:30:04;27.90;59.00
41678;DHT22;27364;49.026;8.712;2022-07-29T12:32:39;27.70;61.90
41678;DHT22;27364;49.026;8.712;2022-07-29T12:35:07;27.60;59.90
41678;DHT22;27364;49.026;8.712;2022-07-29T12:37:34;27.60;60.70
41678;DHT22;27364;49.026;8.712;2022-07-29T12:40:01;27.40;61.00
41678;DHT22;27364;49.026;8.712;2022-07-29T12:42:27;27.40;61.80
41678;DHT22;27364;49.026;8.712;2022-07-29T12:44:53;27.40;61.00
41678;DHT22;27364;49.026;8.712;2022-07-29T12:47:19;27.30;61.30
41678;DHT22;27364;49.026;8.712;2022-07-29T12:49:46;27.40;60.90
41678;DHT22;27364;49.026;8.712;2022-07-29T12:52:26;27.30;60.80
41678;DHT22;27364;49.026;8.712;2022-07-29T12:54:52;27.10;62.60
41678;DHT22;27364;49.026;8.712;2022-07-29T12:57:17;27.10;62.20
41678;DHT22;27364;49.026;8.712;2022-07-29T12:59:43;27.00;62.80
41678;DHT22;27364;49.026;8.712;2022-07-29T13:02:21;27.00;61.40
41678;DHT22;27364;49.026;8.712;2022-07-29T13:04:58;27.00;62.20
41678;DHT22;27364;49.026;8.712;2022-07-29T13:07:26;27.20;61.90
41678;DHT22;27364;49.026;8.712;2022-07-29T13:09:52;27.20;59.10
41678;DHT22;27364;49.026;8.712;2022-07-29T13:12:18;27.10;59.80
41678;DHT22;27364;49.026;8.712;2022-07-29T13:14:47;27.10;59.90
41678;DHT22;27364;49.026;8.712;2022-07-29T13:17:23;27.20;61.00
41678;DHT22;27364;49.026;8.712;2022-07-29T13:20:03;27.00;63.90
41678;DHT22;27364;49.026;8.712;2022-07-29T13:22:29;27.00;62.20
41678;DHT22;27364;49.026;8.712;2022-07-29T13:24:58;27.10;63.00
41678;DHT22;27364;49.026;8.712;2022-07-29T13:27:26;27.10;61.30
41678;DHT22;27364;49.026;8.712;2022-07-29T13:29:53;27.00;62.20
41678;DHT22;27364;49.026;8.712;2022-07-29T13:32:22;27.10;61.40
41678;DHT22;27364;49.026;8.712;2022-07-29T13:34:47;27.20;60.30
41678;DHT22;27364;49.026;8.712;2022-07-29T13:37:13;27.30;59.00
41678;DHT22;27364;49.026;8.712;2022-07-29T13:39:39;27.20;56.90
41678;DHT22;27364;49.026;8.712;2022-07-29T13:42:06;27.20;57.50
41678;DHT22;27364;49.026;8.712;2022-07-29T13:44:32;27.30;57.20
41678;DHT22;27364;49.026;8.712;2022-07-29T13:46:58;27.40;57.50
41678;DHT22;27364;49.026;8.712;2022-07-29T13:49:24;27.40;58.20
41678;DHT22;27364;49.026;8.712;2022-07-29T13:51:50;27.30;58.40
41678;DHT22;27364;49.026;8.712;2022-07-29T13:54:16;27.40;58.00
41678;DHT22;27364;49.026;8.712;2022-07-29T13:56:41;27.40;58.70
41678;DHT22;27364;49.026;8.712;2022-07-29T13:59:07;27.40;58.80
41678;DHT22;27364;49.026;8.712;2022-07-29T14:01:34;27.40;58.60
41678;DHT22;27364;49.026;8.712;2022-07-29T14:04:00;27.40;58.30
41678;DHT22;27364;49.026;8.712;2022-07-29T14:06:25;27.50;56.20
41678;DHT22;27364;49.026;8.712;2022-07-29T14:08:51;27.60;54.80
41678;DHT22;27364;49.026;8.712;2022-07-29T14:11:17;27.50;56.30
41678;DHT22;27364;49.026;8.712;2022-07-29T14:13:42;27.40;57.20
41678;DHT22;27364;49.026;8.712;2022-07-29T14:16:08;27.40;55.40
41678;DHT22;27364;49.026;8.712;2022-07-29T14:18:34;27.30;56.90
41678;DHT22;27364;49.026;8.712;2022-07-29T14:20:59;27.30;56.50
41678;DHT22;27364;49.026;8.712;2022-07-29T14:23:25;27.40;56.30
41678;DHT22;27364;49.026;8.712;2022-07-29T14:25:51;27.30;55.20
41678;DHT22;27364;49.026;8.712;2022-07-29T14:28:16;27.50;54.50
41678;DHT22;27364;49.026;8.712;2022-07-29T14:30:42;27.30;55.50
41678;DHT22;27364;49.026;8.712;2022-07-29T14:33:08;27.50;54.90
41678;DHT22;27364;49.026;8.712;2022-07-29T14:35:33;27.40;54.80
41678;DHT22;27364;49.026;8.712;2022-07-29T14:37:59;27.50;54.70
41678;DHT22;27364;49.026;8.712;2022-07-29T14:40:25;27.50;51.60
41678;DHT22;27364;49.026;8.712;2022-07-29T14:42:51;27.60;52.00
41678;DHT22;27364;49.026;8.712;2022-07-29T14:45:17;27.70;53.70
41678;DHT22;27364;49.026;8.712;2022-07-29T14:47:42;27.70;52.60
41678;DHT22;27364;49.026;8.712;2022-07-29T14:50:08;27.70;52.80
41678;DHT22;27364;49.026;8.712;2022-07-29T14:52:34;27.70;53.70
41678;DHT22;27364;49.026;8.712;2022-07-29T14:55:00;27.70;52.80
41678;DHT22;27364;49.026;8.712;2022-07-29T14:57:26;27.80;54.30
41678;DHT22;27364;49.026;8.712;2022-07-29T14:59:51;27.60;53.40
41678;DHT22;27364;49.026;8.712;2022-07-29T15:02:17;27.50;52.60
41678;DHT22;27364;49.026;8.712;2022-07-29T15:04:42;27.40;52.80
41678;DHT22;27364;49.026;8.712;2022-07-29T15:07:09;27.20;54.10
41678;DHT22;27364;49.026;8.712;2022-07-29T15:09:35;27.20;54.10
41678;DHT22;27364;49.026;8.712;2022-07-29T15:12:00;27.10;54.30
41678;DHT22;27364;49.026;8.712;2022-07-29T15:14:28;27.00;54.10
41678;DHT22;27364;49.026;8.712;2022-07-29T15:16:53;26.90;54.10
41678;DHT22;27364;49.026;8.712;2022-07-29T15:19:19;26.90;56.00
41678;DHT22;27364;49.026;8.712;2022-07-29T15:21:44;27.00;54.10
41678;DHT22;27364;49.026;8.712;2022-07-29T15:24:10;27.10;54.00
41678;DHT22;27364;49.026;8.712;2022-07-29T15:26:36;27.10;53.00
41678;DHT22;27364;49.026;8.712;2022-07-29T15:29:01;27.20;51.50
41678;DHT22;27364;49.026;8.712;2022-07-29T15:31:27;27.20;53.50
41678;DHT22;27364;49.026;8.712;2022-07-29T15:33:52;27.10;54.50
41678;DHT22;27364;49.026;8.712;2022-07-29T15:36:18;27.20;52.30
41678;DHT22;27364;49.026;8.712;2022-07-29T15:38:43;27.20;54.60
41678;DHT22;27364;49.026;8.712;2022-07-29T15:41:13;27.10;53.50
41678;DHT22;27364;49.026;8.712;2022-07-29T15:43:43;27.00;53.20
41678;DHT22;27364;49.026;8.712;2022-07-29T15:46:11;27.00;54.10
41678;DHT22;27364;49.026;8.712;2022-07-29T15:48:56;26.80;52.60
41678;DHT22;27364;49.026;8.712;2022-07-29T15:51:21;26.80;53.10
41678;DHT22;27364;49.026;8.712;2022-07-29T15:53:47;27.00;52.60
41678;DHT22;27364;49.026;8.712;2022-07-29T15:56:12;27.00;52.10
41678;DHT22;27364;49.026;8.712;2022-07-29T15:58:38;27.10;51.40
41678;DHT22;27364;49.026;8.712;2022-07-29T16:01:03;27.20;50.40
41678;DHT22;27364;49.026;8.712;2022-07-29T16:03:29;27.20;49.20
41678;DHT22;27364;49.026;8.712;2022-07-29T16:05:54;27.10;50.80
41678;DHT22;27364;49.026;8.712;2022-07-29T16:08:20;27.10;51.00
41678;DHT22;27364;49.026;8.712;2022-07-29T16:10:46;27.00;51.50
41678;DHT22;27364;49.026;8.712;2022-07-29T16:13:11;27.00;51.80
41678;DHT22;27364;49.026;8.712;2022-07-29T16:15:37;27.10;51.20